Time;durP1;ratioP1;P1;durP2;ratioP2;P2;SDS_P1;SDS_P2;PMS_P1;PMS_P2;Temp;Humidity;BMP_temperature;BMP_pressure;BME280_temperature;BME280_humidity;BME280_pressure;Samples;Min_cycle;Max_cycle;Signal;HPM_P1;HPM_P2
2021/07/08 00:01:59;;;;;;;2.67;2.40;;;;;;;;;;6215694;23;20008;-53
2021/07/08 00:04:25;;;;;;;2.47;2.25;;;;;;;;;;6216097;23;20051;-52
2021/07/08 00:06:51;;;;;;;2.10;1.90;;;;;;;;;;6216121;23;20008;-49
2021/07/08 00:09:17;;;;;;;7.03;2.97;;;;;;;;;;6215306;23;20075;-52
2021/07/08 00:11:43;;;;;;;2.60;2.33;;;;;;;;;;6215665;23;19997;-48
2021/07/08 00:14:09;;;;;;;2.40;2.20;;;;;;;;;;6216055;23;20055;-47
2021/07/08 00:16:38;;;;;;;4.60;2.70;;;;;;;;;;6215471;23;20290;-51
2021/07/08 00:19:05;;;;;;;5.18;2.20;;;;;;;;;;6215402;23;20011;-50
2021/07/08 00:21:31;;;;;;;2.85;2.38;;;;;;;;;;6215849;23;20461;-47
2021/07/08 00:23:57;;;;;;;3.35;2.28;;;;;;;;;;6215907;23;20036;-49
2021/07/08 00:26:23;;;;;;;6.72;2.25;;;;;;;;;;6215821;23;20035;-47
2021/07/08 00:28:49;;;;;;;3.17;2.00;;;;;;;;;;6215142;23;20011;-47
2021/07/08 00:31:15;;;;;;;2.00;1.83;;;;;;;;;;6188836;23;20004;-47
2021/07/08 00:33:42;;;;;;;2.83;2.20;;;;;;;;;;6215943;23;20004;-48
2021/07/08 00:36:08;;;;;;;5.32;3.17;;;;;;;;;;6215893;23;20001;-50
2021/07/08 00:38:34;;;;;;;2.75;2.25;;;;;;;;;;6214751;23;20023;-49
2021/07/08 00:41:00;;;;;;;3.05;2.55;;;;;;;;;;6215667;23;20087;-49
2021/07/08 00:43:29;;;;;;;4.05;2.42;;;;;;;;;;6216006;23;20286;-48
2021/07/08 00:45:55;;;;;;;2.83;2.50;;;;;;;;;;6215163;23;20012;-53
2021/07/08 00:48:21;;;;;;;4.63;2.47;;;;;;;;;;6215163;23;20080;-51
2021/07/08 00:50:47;;;;;;;3.17;2.17;;;;;;;;;;6215598;23;20009;-50
2021/07/08 00:53:14;;;;;;;3.30;2.42;;;;;;;;;;6215626;23;20027;-49
2021/07/08 00:55:42;;;;;;;3.50;2.50;;;;;;;;;;6215622;23;20060;-47
2021/07/08 00:58:10;;;;;;;2.92;2.40;;;;;;;;;;6215049;23;20075;-50
2021/07/08 01:00:37;;;;;;;2.97;2.67;;;;;;;;;;6188310;23;20030;-49
2021/07/08 01:03:08;;;;;;;2.85;2.47;;;;;;;;;;6215219;23;20547;-47
2021/07/08 01:05:35;;;;;;;3.10;2.22;;;;;;;;;;6215892;23;20334;-48
2021/07/08 01:08:01;;;;;;;3.40;2.50;;;;;;;;;;6214810;23;20011;-51
2021/07/08 01:10:28;;;;;;;3.03;2.60;;;;;;;;;;6215937;23;20004;-49
2021/07/08 01:12:54;;;;;;;3.33;2.95;;;;;;;;;;6215735;23;20004;-47
2021/07/08 01:15:20;;;;;;;3.42;2.95;;;;;;;;;;6215484;23;20001;-48
2021/07/08 01:17:47;;;;;;;5.28;2.75;;;;;;;;;;6214885;23;20462;-47
2021/07/08 01:20:14;;;;;;;3.80;2.08;;;;;;;;;;6215580;23;20405;-48
2021/07/08 01:22:40;;;;;;;4.18;2.63;;;;;;;;;;6215297;23;20019;-48
2021/07/08 01:25:07;;;;;;;2.92;2.45;;;;;;;;;;6215101;23;20008;-47
2021/07/08 01:27:34;;;;;;;6.22;2.20;;;;;;;;;;6214863;23;20004;-48
2021/07/08 01:30:00;;;;;;;3.10;2.47;;;;;;;;;;6214944;23;20232;-49
2021/07/08 01:32:26;;;;;;;3.88;2.80;;;;;;;;;;6214444;23;20047;-47
2021/07/08 01:34:52;;;;;;;3.28;2.78;;;;;;;;;;6214929;23;20004;-47
2021/07/08 01:37:18;;;;;;;4.85;2.80;;;;;;;;;;6215316;23;20004;-47
2021/07/08 01:39:47;;;;;;;6.47;2.67;;;;;;;;;;6214609;23;20009;-51
2021/07/08 01:42:13;;;;;;;4.38;3.08;;;;;;;;;;6215257;23;19997;-49
2021/07/08 01:44:40;;;;;;;3.30;2.70;;;;;;;;;;6215330;23;20486;-49
2021/07/08 01:47:06;;;;;;;5.53;3.08;;;;;;;;;;6214950;23;20000;-48
2021/07/08 01:49:33;;;;;;;5.70;2.80;;;;;;;;;;6214395;23;20388;-49
2021/07/08 01:51:59;;;;;;;3.83;2.83;;;;;;;;;;6214961;23;20000;-47
2021/07/08 01:54:25;;;;;;;4.15;2.85;;;;;;;;;;6214993;23;20008;-51
2021/07/08 01:56:51;;;;;;;3.20;2.60;;;;;;;;;;6214884;23;19997;-53
2021/07/08 01:59:17;;;;;;;3.65;2.58;;;;;;;;;;6215059;23;20007;-47
2021/07/08 02:01:43;;;;;;;3.80;2.60;;;;;;;;;;6214113;23;20001;-48
2021/07/08 02:04:09;;;;;;;4.78;2.70;;;;;;;;;;6215121;23;20004;-47
2021/07/08 02:06:35;;;;;;;3.90;2.63;;;;;;;;;;6214959;23;20027;-49
2021/07/08 02:09:01;;;;;;;3.88;3.15;;;;;;;;;;6214330;23;20035;-48
2021/07/08 02:11:28;;;;;;;5.88;3.60;;;;;;;;;;6214757;23;20361;-47
2021/07/08 02:13:54;;;;;;;4.30;3.50;;;;;;;;;;6188174;23;19997;-47
2021/07/08 02:16:20;;;;;;;4.55;2.90;;;;;;;;;;6214087;23;20005;-49
2021/07/08 02:18:47;;;;;;;3.35;2.78;;;;;;;;;;6214146;23;20406;-48
2021/07/08 02:21:13;;;;;;;3.42;3.13;;;;;;;;;;6215073;23;20066;-47
2021/07/08 02:23:39;;;;;;;5.13;3.00;;;;;;;;;;6214574;23;20011;-48
2021/07/08 02:26:06;;;;;;;5.70;2.88;;;;;;;;;;6214871;23;20004;-47
2021/07/08 02:28:32;;;;;;;6.03;3.42;;;;;;;;;;6214241;23;20038;-50
2021/07/08 02:30:58;;;;;;;6.70;3.60;;;;;;;;;;6214204;23;20056;-47
2021/07/08 02:33:25;;;;;;;2.97;2.78;;;;;;;;;;6214337;23;20526;-48
2021/07/08 02:35:51;;;;;;;4.50;3.33;;;;;;;;;;6214458;23;20005;-50
2021/07/08 02:38:17;;;;;;;7.30;3.15;;;;;;;;;;6214519;23;20575;-51
2021/07/08 02:40:43;;;;;;;5.43;3.28;;;;;;;;;;6214510;23;20088;-48
2021/07/08 02:43:09;;;;;;;3.78;3.10;;;;;;;;;;6214623;23;20314;-48
2021/07/08 02:45:37;;;;;;;4.72;3.55;;;;;;;;;;6214236;23;20362;-47
2021/07/08 02:48:04;;;;;;;5.97;3.20;;;;;;;;;;6214173;23;20424;-47
2021/07/08 02:50:31;;;;;;;3.63;3.33;;;;;;;;;;6214804;23;20130;-49
2021/07/08 02:52:57;;;;;;;4.85;3.13;;;;;;;;;;6214322;23;20001;-48
2021/07/08 02:55:24;;;;;;;7.53;3.53;;;;;;;;;;6187861;23;20364;-48
2021/07/08 02:57:50;;;;;;;6.85;3.38;;;;;;;;;;6214187;23;20008;-50
2021/07/08 03:00:21;;;;;;;3.83;3.38;;;;;;;;;;6214105;23;20032;-48
2021/07/08 03:02:50;;;;;;;4.40;3.42;;;;;;;;;;6214133;23;20481;-47
2021/07/08 03:05:16;;;;;;;4.22;3.20;;;;;;;;;;6186616;23;20027;-47
2021/07/08 03:07:42;;;;;;;4.65;3.30;;;;;;;;;;6214085;23;20004;-47
2021/07/08 03:10:10;;;;;;;9.25;3.95;;;;;;;;;;6214278;23;20008;-47
2021/07/08 03:12:36;;;;;;;6.28;3.92;;;;;;;;;;6214146;23;20079;-48
2021/07/08 03:15:03;;;;;;;5.07;3.60;;;;;;;;;;6213950;23;20086;-48
2021/07/08 03:17:29;;;;;;;6.22;3.88;;;;;;;;;;6213486;23;20080;-50
2021/07/08 03:19:55;;;;;;;5.57;3.63;;;;;;;;;;6214034;23;20004;-49
2021/07/08 03:22:21;;;;;;;3.47;3.17;;;;;;;;;;6213840;23;20004;-49
2021/07/08 03:24:47;;;;;;;4.03;3.60;;;;;;;;;;6213908;23;20001;-47
2021/07/08 03:27:13;;;;;;;3.45;3.15;;;;;;;;;;6213985;23;20000;-49
2021/07/08 03:29:39;;;;;;;4.18;3.75;;;;;;;;;;6214018;23;19997;-49
2021/07/08 03:32:06;;;;;;;7.15;3.28;;;;;;;;;;6213470;23;20000;-48
2021/07/08 03:34:32;;;;;;;5.85;3.65;;;;;;;;;;6214354;23;20004;-47
2021/07/08 03:36:58;;;;;;;4.05;3.58;;;;;;;;;;6214230;23;20055;-50
2021/07/08 03:39:24;;;;;;;5.03;3.83;;;;;;;;;;6213830;23;20418;-47
2021/07/08 03:41:53;;;;;;;6.03;3.75;;;;;;;;;;6214135;23;20389;-48
2021/07/08 03:44:19;;;;;;;4.38;3.97;;;;;;;;;;6214191;23;20092;-50
2021/07/08 03:46:45;;;;;;;6.47;3.42;;;;;;;;;;6213720;23;20035;-47
2021/07/08 03:49:11;;;;;;;6.00;4.10;;;;;;;;;;6213413;23;20016;-48
2021/07/08 03:51:38;;;;;;;6.30;3.70;;;;;;;;;;6214094;23;20032;-47
2021/07/08 03:54:07;;;;;;;3.90;3.47;;;;;;;;;;6213856;23;20005;-49
2021/07/08 03:56:33;;;;;;;5.00;4.10;;;;;;;;;;6187574;23;20058;-47
2021/07/08 03:58:59;;;;;;;5.43;3.80;;;;;;;;;;6213812;23;20005;-47
2021/07/08 04:01:26;;;;;;;9.48;3.95;;;;;;;;;;6213573;23;20334;-47
2021/07/08 04:03:52;;;;;;;5.30;3.55;;;;;;;;;;6214309;23;20011;-49
2021/07/08 04:06:18;;;;;;;5.72;3.92;;;;;;;;;;6214502;23;20432;-47
2021/07/08 04:08:44;;;;;;;4.97;3.42;;;;;;;;;;6213576;23;20005;-49
2021/07/08 04:11:10;;;;;;;5.07;3.72;;;;;;;;;;6213594;23;20001;-48
2021/07/08 04:13:36;;;;;;;3.90;3.60;;;;;;;;;;6214238;23;20005;-47
2021/07/08 04:16:02;;;;;;;5.43;3.78;;;;;;;;;;6213622;23;20009;-48
2021/07/08 04:18:28;;;;;;;4.35;3.83;;;;;;;;;;6213536;23;20001;-51
2021/07/08 04:20:54;;;;;;;5.30;4.20;;;;;;;;;;6213947;23;20004;-49
2021/07/08 04:23:20;;;;;;;5.55;3.88;;;;;;;;;;6213982;23;20317;-47
2021/07/08 04:25:46;;;;;;;4.13;3.72;;;;;;;;;;6213582;23;19997;-48
2021/07/08 04:28:12;;;;;;;5.55;3.50;;;;;;;;;;6213437;23;20001;-48
2021/07/08 04:30:38;;;;;;;5.07;3.90;;;;;;;;;;6213781;23;20004;-48
2021/07/08 04:33:04;;;;;;;3.45;3.15;;;;;;;;;;6213785;23;20000;-51
2021/07/08 04:35:33;;;;;;;4.68;3.67;;;;;;;;;;6214388;23;20005;-48
2021/07/08 04:38:00;;;;;;;3.97;3.58;;;;;;;;;;6215345;23;20008;-48
2021/07/08 04:40:26;;;;;;;3.58;2.95;;;;;;;;;;6215710;23;20448;-49
2021/07/08 04:42:52;;;;;;;3.40;2.80;;;;;;;;;;6215711;23;20001;-49
2021/07/08 04:45:19;;;;;;;4.10;3.00;;;;;;;;;;6215635;23;20341;-50
2021/07/08 04:47:46;;;;;;;4.35;2.72;;;;;;;;;;6215406;23;20005;-49
2021/07/08 04:50:17;;;;;;;2.67;2.47;;;;;;;;;;6215114;23;20044;-48
2021/07/08 04:52:43;;;;;;;3.70;2.88;;;;;;;;;;6215335;23;20004;-48
2021/07/08 04:55:09;;;;;;;5.82;2.90;;;;;;;;;;6215420;23;20536;-48
2021/07/08 04:57:36;;;;;;;3.17;2.58;;;;;;;;;;6215265;23;20005;-49
2021/07/08 05:00:03;;;;;;;4.88;2.88;;;;;;;;;;6215467;23;20008;-51
2021/07/08 05:02:29;;;;;;;3.05;2.60;;;;;;;;;;6215218;23;20032;-49
2021/07/08 05:04:55;;;;;;;3.03;2.70;;;;;;;;;;6188915;23;19997;-50
2021/07/08 05:07:21;;;;;;;3.03;2.60;;;;;;;;;;6214803;23;20000;-51
2021/07/08 05:09:47;;;;;;;2.55;2.20;;;;;;;;;;6214858;23;20001;-48
2021/07/08 05:12:13;;;;;;;3.08;2.20;;;;;;;;;;6214831;23;20424;-48
2021/07/08 05:14:39;;;;;;;4.97;2.40;;;;;;;;;;6215078;23;20032;-48
2021/07/08 05:17:05;;;;;;;3.40;2.75;;;;;;;;;;6214545;23;20008;-51
2021/07/08 05:19:31;;;;;;;5.00;2.25;;;;;;;;;;6214857;23;20507;-48
2021/07/08 05:22:02;;;;;;;4.30;2.42;;;;;;;;;;6214827;23;20023;-49
2021/07/08 05:24:28;;;;;;;3.60;2.45;;;;;;;;;;6215633;23;20005;-49
2021/07/08 05:26:54;;;;;;;3.85;2.88;;;;;;;;;;6215099;23;20001;-48
2021/07/08 05:29:22;;;;;;;4.68;2.25;;;;;;;;;;6214773;23;20015;-50
2021/07/08 05:31:49;;;;;;;3.53;2.25;;;;;;;;;;6214944;23;20300;-48
2021/07/08 05:34:15;;;;;;;4.00;2.40;;;;;;;;;;6215533;23;20054;-49
2021/07/08 05:36:41;;;;;;;3.80;2.50;;;;;;;;;;6214539;23;20028;-48
2021/07/08 05:39:07;;;;;;;4.70;2.63;;;;;;;;;;6214538;23;20291;-48
2021/07/08 05:41:33;;;;;;;3.28;2.92;;;;;;;;;;6215135;23;20441;-48
2021/07/08 05:43:59;;;;;;;3.20;2.50;;;;;;;;;;6188777;23;19996;-48
2021/07/08 05:46:26;;;;;;;2.45;1.98;;;;;;;;;;6214071;23;20001;-48
2021/07/08 05:48:52;;;;;;;2.60;2.28;;;;;;;;;;6214481;23;20060;-49
2021/07/08 05:51:18;;;;;;;2.80;2.50;;;;;;;;;;6214604;23;20005;-50
2021/07/08 05:53:44;;;;;;;2.92;2.45;;;;;;;;;;6214738;23;20007;-49
2021/07/08 05:56:10;;;;;;;4.65;2.45;;;;;;;;;;6214423;23;20076;-48
2021/07/08 05:58:36;;;;;;;3.95;2.70;;;;;;;;;;6214187;23;20019;-48
2021/07/08 06:01:02;;;;;;;2.95;2.33;;;;;;;;;;6214899;23;20075;-48
2021/07/08 06:03:28;;;;;;;1.95;1.73;;;;;;;;;;6214840;23;20001;-50
2021/07/08 06:05:54;;;;;;;2.55;1.95;;;;;;;;;;6214542;23;20336;-48
2021/07/08 06:08:20;;;;;;;4.38;2.28;;;;;;;;;;6213821;23;20011;-48
2021/07/08 06:10:46;;;;;;;5.32;2.75;;;;;;;;;;6214346;23;20429;-50
2021/07/08 06:13:12;;;;;;;2.20;2.00;;;;;;;;;;6214821;23;20004;-48
2021/07/08 06:15:38;;;;;;;3.53;2.45;;;;;;;;;;6214197;23;20054;-48
2021/07/08 06:18:05;;;;;;;4.90;2.17;;;;;;;;;;6214326;23;20008;-48
2021/07/08 06:20:31;;;;;;;2.65;2.33;;;;;;;;;;6214938;23;20004;-49
2021/07/08 06:22:57;;;;;;;4.05;2.60;;;;;;;;;;6214604;23;20048;-49
2021/07/08 06:25:26;;;;;;;7.18;2.67;;;;;;;;;;6214431;23;20100;-49
2021/07/08 06:27:52;;;;;;;3.03;2.40;;;;;;;;;;6213892;23;20004;-48
2021/07/08 06:30:18;;;;;;;3.45;2.65;;;;;;;;;;6214662;23;20066;-48
2021/07/08 06:32:44;;;;;;;4.18;2.67;;;;;;;;;;6213737;23;20036;-49
2021/07/08 06:35:12;;;;;;;5.47;3.10;;;;;;;;;;6214272;23;20437;-48
2021/07/08 06:37:38;;;;;;;3.90;2.80;;;;;;;;;;6213061;23;20005;-48
2021/07/08 06:40:05;;;;;;;4.30;3.00;;;;;;;;;;6214362;23;20063;-48
2021/07/08 06:42:31;;;;;;;4.72;2.80;;;;;;;;;;6213611;23;20005;-50
2021/07/08 06:44:57;;;;;;;5.10;2.72;;;;;;;;;;6213739;23;20456;-50
2021/07/08 06:47:26;;;;;;;4.88;2.80;;;;;;;;;;6214160;23;20050;-48
2021/07/08 06:49:52;;;;;;;3.78;2.72;;;;;;;;;;6213147;23;20390;-48
2021/07/08 06:52:19;;;;;;;5.93;3.13;;;;;;;;;;6214462;23;20001;-49
2021/07/08 06:54:45;;;;;;;4.32;3.17;;;;;;;;;;6214575;23;20329;-50
2021/07/08 06:57:11;;;;;;;5.53;2.80;;;;;;;;;;6214166;23;20000;-48
2021/07/08 06:59:37;;;;;;;4.90;3.25;;;;;;;;;;6212911;23;20389;-49
2021/07/08 07:02:03;;;;;;;6.30;3.65;;;;;;;;;;6214126;23;19996;-48
2021/07/08 07:04:29;;;;;;;4.85;2.78;;;;;;;;;;6213577;23;20001;-48
2021/07/08 07:06:55;;;;;;;5.80;3.38;;;;;;;;;;6213632;23;20086;-48
2021/07/08 07:09:21;;;;;;;7.35;3.10;;;;;;;;;;6213873;23;20011;-49
2021/07/08 07:11:47;;;;;;;3.92;2.92;;;;;;;;;;6213855;23;20333;-48
2021/07/08 07:14:13;;;;;;;5.80;2.90;;;;;;;;;;6213958;23;20087;-48
2021/07/08 07:16:39;;;;;;;4.30;2.90;;;;;;;;;;6213996;23;20080;-48
2021/07/08 07:19:05;;;;;;;3.70;2.90;;;;;;;;;;6211882;23;20059;-49
2021/07/08 07:21:31;;;;;;;6.70;2.45;;;;;;;;;;6213930;23;20452;-50
2021/07/08 07:23:57;;;;;;;4.60;3.00;;;;;;;;;;6213792;23;20011;-48
2021/07/08 07:26:23;;;;;;;3.92;2.50;;;;;;;;;;6213911;23;20425;-50
2021/07/08 07:28:50;;;;;;;3.90;2.70;;;;;;;;;;6213583;23;20008;-50
2021/07/08 07:31:16;;;;;;;3.40;2.58;;;;;;;;;;6214144;23;20000;-54
2021/07/08 07:33:42;;;;;;;3.13;2.70;;;;;;;;;;6213499;23;20005;-48
2021/07/08 07:36:10;;;;;;;2.65;2.22;;;;;;;;;;6214255;23;20007;-49
2021/07/08 07:38:36;;;;;;;4.75;2.75;;;;;;;;;;6213884;23;20000;-51
2021/07/08 07:41:02;;;;;;;4.35;2.80;;;;;;;;;;6214349;23;20080;-48
2021/07/08 07:43:28;;;;;;;3.38;2.58;;;;;;;;;;6213506;23;20075;-48
2021/07/08 07:45:54;;;;;;;3.00;2.45;;;;;;;;;;6213661;23;20001;-51
2021/07/08 07:48:20;;;;;;;4.35;2.10;;;;;;;;;;6213375;23;20370;-48
2021/07/08 07:50:46;;;;;;;2.40;2.17;;;;;;;;;;6213372;23;20041;-48
2021/07/08 07:53:12;;;;;;;2.78;2.28;;;;;;;;;;6214303;23;20007;-48
2021/07/08 07:55:38;;;;;;;4.10;1.98;;;;;;;;;;6214118;23;20025;-48
2021/07/08 07:58:05;;;;;;;3.85;2.35;;;;;;;;;;6213685;23;20001;-48
2021/07/08 08:00:31;;;;;;;3.70;2.35;;;;;;;;;;6213358;23;20505;-49
2021/07/08 08:02:58;;;;;;;3.45;2.60;;;;;;;;;;6213305;23;20132;-48
2021/07/08 08:10:38;;;;;;;4.40;2.92;;;;;;;;;;6213361;23;20066;-51
2021/07/08 08:13:05;;;;;;;5.43;2.60;;;;;;;;;;6215328;23;20388;-48
2021/07/08 08:15:31;;;;;;;5.65;2.72;;;;;;;;;;6213760;23;20083;-48
2021/07/08 08:18:01;;;;;;;5.68;2.58;;;;;;;;;;6212875;23;20019;-48
2021/07/08 08:20:27;;;;;;;3.20;2.17;;;;;;;;;;6214528;23;20303;-48
2021/07/08 08:22:53;;;;;;;2.53;2.22;;;;;;;;;;6215567;23;20374;-48
2021/07/08 08:25:19;;;;;;;4.15;2.45;;;;;;;;;;6215076;23;20011;-49
2021/07/08 08:27:45;;;;;;;5.70;2.15;;;;;;;;;;6215456;23;20040;-49
2021/07/08 08:30:13;;;;;;;4.50;2.20;;;;;;;;;;6215516;23;20012;-48
2021/07/08 08:32:39;;;;;;;2.80;2.22;;;;;;;;;;6215717;23;20004;-48
2021/07/08 08:35:05;;;;;;;4.50;2.05;;;;;;;;;;6214991;23;20001;-49
2021/07/08 08:37:31;;;;;;;6.05;2.15;;;;;;;;;;6215294;23;20008;-48
2021/07/08 08:39:57;;;;;;;6.90;2.53;;;;;;;;;;6214343;23;20007;-48
2021/07/08 08:42:25;;;;;;;3.63;2.50;;;;;;;;;;6215223;23;19997;-49
2021/07/08 08:44:51;;;;;;;3.83;2.20;;;;;;;;;;6214750;23;20004;-52
2021/07/08 08:47:17;;;;;;;4.85;2.20;;;;;;;;;;6215580;23;20088;-48
2021/07/08 08:49:43;;;;;;;5.43;2.50;;;;;;;;;;6214363;23;20028;-48
2021/07/08 08:52:10;;;;;;;5.07;2.47;;;;;;;;;;6215604;23;20537;-48
2021/07/08 08:54:36;;;;;;;5.13;2.80;;;;;;;;;;6215194;23;20067;-49
2021/07/08 08:57:03;;;;;;;3.25;2.80;;;;;;;;;;6215739;23;20495;-48
2021/07/08 08:59:29;;;;;;;4.20;2.63;;;;;;;;;;6214594;23;20039;-50
2021/07/08 09:02:14;;;;;;;3.72;2.67;;;;;;;;;;6215875;23;19997;-48
2021/07/08 09:04:41;;;;;;;6.90;2.30;;;;;;;;;;6215766;23;20210;-53
2021/07/08 09:07:21;;;;;;;3.17;2.67;;;;;;;;;;6214757;23;19996;-52
2021/07/08 09:09:47;;;;;;;3.63;2.60;;;;;;;;;;6215206;23;20356;-48
2021/07/08 09:12:13;;;;;;;3.25;2.50;;;;;;;;;;6215968;23;20119;-48
2021/07/08 09:14:39;;;;;;;6.82;2.83;;;;;;;;;;6216454;23;20012;-48
2021/07/08 09:17:15;;;;;;;3.10;2.80;;;;;;;;;;6214724;23;20004;-49
2021/07/08 09:19:41;;;;;;;5.90;3.00;;;;;;;;;;6215121;23;20019;-53
2021/07/08 09:22:07;;;;;;;5.10;2.90;;;;;;;;;;6215292;23;20004;-49
2021/07/08 09:24:34;;;;;;;6.82;2.47;;;;;;;;;;6215318;23;19997;-48
2021/07/08 09:27:08;;;;;;;4.63;2.90;;;;;;;;;;6215615;23;20487;-51
2021/07/08 09:29:39;;;;;;;7.03;2.67;;;;;;;;;;6215339;23;20405;-48
2021/07/08 09:32:07;;;;;;;4.78;2.13;;;;;;;;;;6214825;23;20413;-49
2021/07/08 09:34:35;;;;;;;5.05;2.25;;;;;;;;;;6215712;23;20051;-48
2021/07/08 09:37:05;;;;;;;3.35;2.75;;;;;;;;;;6214530;23;20016;-49
2021/07/08 09:39:35;;;;;;;4.45;2.33;;;;;;;;;;6214098;23;20009;-48
2021/07/08 09:42:02;;;;;;;4.90;2.55;;;;;;;;;;6215506;23;20008;-49
2021/07/08 09:44:29;;;;;;;5.45;2.35;;;;;;;;;;6214350;23;20083;-48
2021/07/08 09:46:56;;;;;;;3.65;2.50;;;;;;;;;;6214552;23;20071;-49
2021/07/08 09:49:23;;;;;;;4.93;1.92;;;;;;;;;;6214662;23;20009;-48
2021/07/08 09:51:49;;;;;;;3.00;2.40;;;;;;;;;;6214626;23;20005;-48
2021/07/08 09:54:24;;;;;;;5.70;2.53;;;;;;;;;;6214790;23;20035;-51
2021/07/08 09:56:55;;;;;;;3.45;2.08;;;;;;;;;;6215250;23;20553;-48
2021/07/08 09:59:32;;;;;;;18.10;2.90;;;21.60;99.90;;;;;;6214346;23;20017;-47
2021/07/08 10:01:59;;;;;;;5.88;2.42;;;21.80;99.90;;;;;;6215036;23;20012;-47
2021/07/08 10:04:25;;;;;;;6.45;2.53;;;21.80;99.90;;;;;;6215279;23;20000;-48
2021/07/08 10:06:51;;;;;;;3.47;2.22;;;21.80;99.90;;;;;;6214962;23;20044;-48
2021/07/08 10:09:19;;;;;;;3.60;2.00;;;21.90;99.90;;;;;;6214606;23;20011;-47
2021/07/08 10:11:55;;;;;;;3.72;1.80;;;21.90;99.90;;;;;;6215201;23;20027;-47
2021/07/08 10:14:21;;;;;;;2.97;1.88;;;21.90;99.90;;;;;;6214550;23;20013;-48
2021/07/08 10:16:54;;;;;;;4.88;2.00;;;21.90;99.90;;;;;;6214629;23;20008;-47
2021/07/08 10:19:22;;;;;;;2.15;1.38;;;22.00;99.90;;;;;;6214513;23;20295;-47
2021/07/08 10:21:49;;;;;;;4.75;1.80;;;21.90;99.90;;;;;;6214909;23;20004;-49
2021/07/08 10:24:16;;;;;;;4.20;1.98;;;21.90;99.90;;;;;;6214710;23;20028;-47
2021/07/08 10:26:46;;;;;;;3.83;1.58;;;21.90;99.90;;;;;;6214431;23;20001;-47
2021/07/08 10:29:13;;;;;;;5.35;1.75;;;21.80;99.90;;;;;;6213485;23;20031;-48
2021/07/08 10:31:41;;;;;;;2.63;1.80;;;21.80;99.90;;;;;;6214559;23;20394;-48
2021/07/08 10:34:12;;;;;;;6.30;2.00;;;21.80;99.90;;;;;;6214688;23;20413;-48
2021/07/08 10:36:41;;;;;;;3.28;1.40;;;21.70;99.90;;;;;;6214812;23;20083;-47
2021/07/08 10:39:09;;;;;;;2.95;1.70;;;21.70;99.90;;;;;;6186921;23;20344;-48
2021/07/08 10:41:35;;;;;;;2.53;1.52;;;21.70;99.90;;;;;;6214504;23;20000;-47
2021/07/08 10:44:00;;;;;;;3.17;1.67;;;21.70;99.90;;;;;;6214220;23;20005;-47
2021/07/08 10:46:36;;;;;;;3.40;1.80;;;21.70;99.90;;;;;;6213525;23;20032;-47
2021/07/08 10:49:11;;;;;;;3.25;2.20;;;21.80;99.90;;;;;;6213891;23;20066;-47
2021/07/08 10:51:38;;;;;;;2.55;1.73;;;21.80;99.90;;;;;;6214597;23;20004;-48
2021/07/08 10:54:27;;;;;;;2.33;1.70;;;21.80;99.90;;;;;;6213900;23;20062;-47
2021/07/08 10:56:56;;;;;;;6.80;1.65;;;21.80;99.90;;;;;;6213834;23;20466;-48
2021/07/08 10:59:22;;;;;;;3.50;1.75;;;21.80;99.90;;;;;;6212689;23;20013;-47
2021/07/08 11:01:52;;;;;;;2.53;1.55;;;21.90;99.90;;;;;;6213954;23;20449;-47
2021/07/08 11:04:46;;;;;;;2.35;1.80;;;22.00;99.90;;;;;;6214625;23;20005;-47
2021/07/08 11:07:20;;;;;;;3.45;1.70;;;22.00;99.90;;;;;;6213679;23;20011;-48
2021/07/08 11:10:05;;;;;;;2.58;1.55;;;22.10;99.90;;;;;;6214094;23;20015;-49
2021/07/08 11:12:32;;;;;;;3.72;1.60;;;22.20;99.90;;;;;;6213665;23;20011;-47
2021/07/08 11:14:58;;;;;;;2.45;1.50;;;22.20;99.90;;;;;;6214113;23;20000;-47
2021/07/08 11:17:24;;;;;;;2.38;1.73;;;22.30;99.90;;;;;;6214094;23;20005;-49
2021/07/08 11:19:51;;;;;;;3.42;1.73;;;22.40;99.90;;;;;;6214069;23;20001;-48
2021/07/08 11:22:22;;;;;;;1.90;1.70;;;22.50;99.90;;;;;;6214403;23;20022;-49
2021/07/08 11:24:53;;;;;;;2.47;1.75;;;22.50;99.90;;;;;;6214487;23;20445;-47
2021/07/08 11:27:35;;;;;;;3.75;1.75;;;22.50;99.90;;;;;;6213997;23;20329;-48
2021/07/08 11:30:14;;;;;;;6.53;1.65;;;22.50;99.90;;;;;;6214090;23;20013;-47
2021/07/08 11:35:19;;;;;;;3.63;1.50;;;22.40;99.90;;;;;;6214288;23;20015;-47
2021/07/08 11:37:54;;;;;;;6.40;1.90;;;22.40;99.90;;;;;;6214562;23;20004;-48
2021/07/08 11:40:22;;;;;;;2.83;1.73;;;22.40;99.90;;;;;;6214249;23;20001;-48
2021/07/08 11:42:49;;;;;;;6.13;1.83;;;22.40;99.90;;;;;;6213779;23;20023;-47
2021/07/08 11:45:26;;;;;;;2.83;1.75;;;22.40;99.90;;;;;;6214139;23;20076;-47
2021/07/08 11:47:56;;;;;;;3.08;1.90;;;22.40;99.90;;;;;;6215789;23;20015;-47
2021/07/08 11:50:36;;;;;;;6.93;1.98;;;22.30;99.90;;;;;;6216224;23;20170;-48
2021/07/08 11:53:14;;;;;;;3.05;1.90;;;22.20;99.90;;;;;;6188756;23;20008;-48
2021/07/08 11:55:41;;;;;;;4.35;2.05;;;22.20;99.90;;;;;;6216299;23;20012;-47
2021/07/08 11:58:08;;;;;;;2.90;1.95;;;22.20;99.90;;;;;;6216160;23;20452;-47
2021/07/08 12:00:47;;;;;;;2.03;1.70;;;22.10;99.90;;;;;;6216868;23;20475;-48
2021/07/08 12:03:23;;;;;;;3.42;1.83;;;22.10;99.90;;;;;;6216628;23;20079;-50
2021/07/08 12:05:51;;;;;;;3.45;1.90;;;22.10;99.90;;;;;;6216292;23;20042;-47
2021/07/08 12:08:25;;;;;;;4.03;2.13;;;22.00;99.90;;;;;;6216346;23;20001;-47
2021/07/08 12:10:57;;;;;;;2.40;2.03;;;22.10;99.90;;;;;;6214515;23;20084;-47
2021/07/08 12:13:23;;;;;;;2.92;1.70;;;22.10;99.90;;;;;;6215717;23;20020;-49
2021/07/08 12:15:49;;;;;;;5.88;2.88;;;22.00;99.90;;;;;;6215253;23;20012;-47
2021/07/08 12:18:14;;;;;;;3.92;2.42;;;22.00;99.90;;;;;;6214933;23;20020;-47
2021/07/08 12:20:49;;;;;;;4.35;2.35;;;22.00;99.90;;;;;;6215377;23;20425;-47
2021/07/08 12:23:15;;;;;;;4.82;2.10;;;22.00;99.90;;;;;;6216181;23;20001;-48
2021/07/08 12:25:40;;;;;;;4.28;2.33;;;21.90;99.90;;;;;;6215947;23;20496;-48
2021/07/08 12:28:06;;;;;;;3.83;2.40;;;21.80;99.90;;;;;;6215060;23;20005;-47
2021/07/08 12:30:32;;;;;;;2.60;2.15;;;21.60;99.90;;;;;;6215827;23;20017;-47
2021/07/08 12:33:09;;;;;;;4.10;2.28;;;21.70;99.90;;;;;;6215614;23;20083;-48
2021/07/08 12:35:46;;;;;;;3.80;2.53;;;21.70;99.90;;;;;;6216177;23;20005;-47
2021/07/08 12:38:14;;;;;;;2.95;2.13;;;21.70;99.90;;;;;;6215618;23;20004;-48
2021/07/08 12:40:40;;;;;;;2.85;2.50;;;21.70;99.90;;;;;;6216031;23;20408;-49
2021/07/08 12:43:11;;;;;;;4.05;2.17;;;21.70;99.90;;;;;;6215162;23;20023;-47
2021/07/08 12:45:39;;;;;;;4.35;3.47;;;21.60;99.90;;;;;;6215725;23;19996;-47
2021/07/08 12:48:07;;;;;;;4.72;2.50;;;21.70;99.90;;;;;;6215322;23;20012;-47
2021/07/08 12:50:36;;;;;;;3.60;2.10;;;21.70;99.90;;;;;;6214202;23;20017;-47
2021/07/08 12:53:05;;;;;;;4.65;2.40;;;21.80;99.90;;;;;;6213855;23;20005;-47
2021/07/08 12:55:49;;;;;;;7.28;2.88;;;21.70;99.90;;;;;;6213476;23;20009;-46
2021/07/08 12:58:20;;;;;;;3.22;2.17;;;21.80;99.90;;;;;;6213519;23;20008;-47
2021/07/08 13:00:47;;;;;;;6.57;2.67;;;21.80;99.90;;;;;;6213317;23;20000;-47
2021/07/08 13:03:18;;;;;;;6.88;2.58;;;21.80;99.90;;;;;;6214036;23;19996;-47
2021/07/08 13:05:45;;;;;;;6.18;3.08;;;21.80;99.90;;;;;;6213459;23;20328;-47
2021/07/08 13:08:13;;;;;;;3.35;2.60;;;21.70;99.90;;;;;;6213286;23;20008;-46
2021/07/08 13:10:47;;;;;;;7.63;2.33;;;21.70;99.90;;;;;;6213921;23;20012;-47
2021/07/08 13:13:14;;;;;;;3.03;2.72;;;21.70;99.90;;;;;;6213623;23;20031;-47
2021/07/08 13:15:45;;;;;;;7.43;3.05;;;21.60;99.90;;;;;;6213885;23;20008;-47
2021/07/08 13:18:11;;;;;;;8.05;3.15;;;21.60;99.90;;;;;;6212787;23;20013;-47
2021/07/08 13:20:39;;;;;;;3.03;2.53;;;21.50;99.90;;;;;;6213568;23;20087;-47
2021/07/08 13:23:16;;;;;;;7.80;2.90;;;21.50;99.90;;;;;;6213572;23;20377;-49
2021/07/08 13:25:43;;;;;;;4.90;3.08;;;21.50;99.90;;;;;;6214413;23;20007;-47
2021/07/08 13:28:25;;;;;;;3.55;3.15;;;21.40;99.90;;;;;;6212713;23;20006;-47
2021/07/08 13:31:11;;;;;;;6.60;3.00;;;21.40;99.90;;;;;;6213543;23;20043;-50
2021/07/08 13:33:45;;;;;;;4.90;3.85;;;21.20;99.90;;;;;;6213736;23;20000;-48
2021/07/08 13:36:22;;;;;;;9.07;3.25;;;21.10;99.90;;;;;;6213818;23;20078;-48
2021/07/08 13:39:10;;;;;;;8.48;4.00;;;21.00;99.90;;;;;;6212954;23;20032;-48
2021/07/08 13:41:39;;;;;;;7.85;4.10;;;20.90;99.90;;;;;;6214276;23;20603;-47
2021/07/08 13:44:21;;;;;;;8.18;3.88;;;20.90;99.90;;;;;;6213604;23;20027;-47
2021/07/08 13:47:03;;;;;;;6.68;4.03;;;20.90;99.90;;;;;;6213500;23;20047;-47
2021/07/08 13:49:34;;;;;;;4.80;3.43;;;21.00;99.90;;;;;;6140354;23;974154;-48
2021/07/08 13:52:02;;;;;;;4.53;3.40;;;21.10;99.90;;;;;;6185075;23;20430;-47
2021/07/08 13:54:32;;;;;;;6.55;3.15;;;21.30;99.90;;;;;;6184691;23;20005;-47
2021/07/08 13:56:59;;;;;;;5.93;3.58;;;21.40;99.90;;;;;;6185436;23;20016;-48
2021/07/08 13:59:24;;;;;;;4.10;3.45;;;21.40;99.90;;;;;;6184822;23;20012;-46
2021/07/08 14:01:50;;;;;;;7.45;3.75;;;21.40;99.90;;;;;;6184676;23;20457;-48
2021/07/08 14:04:16;;;;;;;4.63;3.63;;;21.50;99.90;;;;;;6184735;23;20036;-47
2021/07/08 14:06:42;;;;;;;4.38;3.03;;;21.50;99.90;;;;;;6184802;23;19998;-47
2021/07/08 14:09:07;;;;;;;6.47;4.15;;;21.40;99.90;;;;;;6183804;23;20040;-47
2021/07/08 14:11:34;;;;;;;5.90;3.70;;;21.30;99.90;;;;;;6185153;23;20009;-47
2021/07/08 14:14:03;;;;;;;3.28;2.97;;;21.40;99.90;;;;;;6185298;23;20048;-47
2021/07/08 14:16:29;;;;;;;7.75;3.75;;;21.40;99.90;;;;;;6184758;23;20005;-47